KTTD/TTD METAR and TAF weather

Enter ICAO airport designator
Station Type Date Time Source
KTTD METAR 2021/09/24 01:53 UTC NOAA

KTTD 240153Z 26005KT 10SM CLR 22/13 A3015 RMK AO2 SLP208 T02170128


Station Type Date Time Source
KTTD Decoded METAR 2021/09/24 01:53 UTC NOAA

PORTLAND-TROUTDALE AIRPORT, OR, United States (KTTD) 45-33N 122-25W 14M
Sep 23, 2021 - 09:53 PM EDT / 2021.09.24 0153 UTC
Wind: from the W (260 degrees) at 6 MPH (5 KT):0
Visibility: 10 mile(s):0
Sky conditions: clear
Temperature: 71.1 F (21.7 C)
Dew Point: 55.0 F (12.8 C)
Relative Humidity: 56%
Pressure (altimeter): 30.15 in. Hg (1020 hPa)
ob: KTTD 240153Z 26005KT 10SM CLR 22/13 A3015 RMK AO2 SLP208 T02170128
cycle: 2

Station Type Date Time Source
KTTD TAF 2021/09/23 18:42 UTC NOAA

TAF KTTD 231741Z 2318/2418 VRB04KT P6SM SCT011
FM231900 VRB04KT P6SM FEW180
FM232100 33006KT P6SM SKC
FM241500 08008KT P6SM SKC

Example: see airport list